createdAt,value
2018-02-27T00:00:21.631Z,5.47
2018-02-27T00:02:49.202Z,6.85
2018-02-27T00:05:16.733Z,6.03
2018-02-27T00:07:44.285Z,8.13
2018-02-27T00:10:12.570Z,6.30
2018-02-27T00:12:40.123Z,7.87
2018-02-27T00:15:08.411Z,7.90
2018-02-27T00:17:35.959Z,6.30
2018-02-27T00:20:04.238Z,6.10
2018-02-27T00:22:32.541Z,6.90
2018-02-27T00:25:00.063Z,6.10
2018-02-27T00:27:28.371Z,6.60
2018-02-27T00:29:55.894Z,6.03
2018-02-27T00:32:23.443Z,4.60
2018-02-27T00:34:50.970Z,3.85
2018-02-27T00:37:18.501Z,4.37
2018-02-27T00:39:46.082Z,2.80
2018-02-27T00:42:13.621Z,3.30
2018-02-27T00:44:41.141Z,3.40
2018-02-27T00:47:08.681Z,2.75
2018-02-27T00:49:36.202Z,2.70
2018-02-27T00:52:03.752Z,3.60
2018-02-27T00:54:32.035Z,2.80
2018-02-27T00:56:59.566Z,3.30
2018-02-27T00:59:27.104Z,2.78
2018-02-27T01:01:54.842Z,3.05
2018-02-27T01:04:22.386Z,2.85
2018-02-27T01:06:49.900Z,3.30
2018-02-27T01:09:17.445Z,3.03
2018-02-27T01:11:44.962Z,3.22
2018-02-27T01:14:12.498Z,2.20
2018-02-27T01:16:40.787Z,3.75
2018-02-27T01:19:09.092Z,3.20
2018-02-27T01:21:36.623Z,2.92
2018-02-27T01:24:04.923Z,3.10
2018-02-27T01:26:32.450Z,3.00
2018-02-27T01:28:59.988Z,2.75
2018-02-27T01:31:27.509Z,3.03
2018-02-27T01:33:55.022Z,3.95
2018-02-27T01:36:22.558Z,3.40
2018-02-27T01:38:50.079Z,2.95
2018-02-27T01:41:17.617Z,2.72
2018-02-27T01:43:45.907Z,3.22
2018-02-27T01:46:13.451Z,3.08
2018-02-27T01:48:40.975Z,2.10
2018-02-27T01:51:14.542Z,2.72
2018-02-27T01:53:42.057Z,2.92
2018-02-27T01:56:10.398Z,3.03
2018-02-27T01:58:37.914Z,3.80
2018-02-27T02:01:06.218Z,3.17
2018-02-27T02:03:33.746Z,2.75
2018-02-27T02:06:01.349Z,2.60
2018-02-27T02:08:28.881Z,3.20
2018-02-27T02:10:57.167Z,3.25
2018-02-27T02:13:24.706Z,3.17
2018-02-27T02:15:52.986Z,3.35
2018-02-27T02:18:21.294Z,2.95
2018-02-27T02:20:48.862Z,2.87
2018-02-27T02:23:16.401Z,2.72
2018-02-27T02:25:43.922Z,2.70
2018-02-27T02:28:11.466Z,2.95
2018-02-27T02:30:38.994Z,3.70
2018-02-27T02:33:06.538Z,3.33
2018-02-27T02:35:34.827Z,3.12
2018-02-27T02:38:02.413Z,3.85
2018-02-27T02:40:29.923Z,3.30
2018-02-27T02:42:58.210Z,4.10
2018-02-27T02:45:26.511Z,3.25
2018-02-27T02:47:54.032Z,3.15
2018-02-27T02:50:21.571Z,3.90
2018-02-27T02:52:49.091Z,3.55
2018-02-27T02:55:16.632Z,2.87
2018-02-27T02:57:44.924Z,3.10
2018-02-27T03:00:12.466Z,3.35
2018-02-27T03:02:40.754Z,3.70
2018-02-27T03:05:08.298Z,4.82
2018-02-27T03:07:36.585Z,4.53
2018-02-27T03:10:04.899Z,4.75
2018-02-27T03:12:32.429Z,4.35
2018-02-27T03:14:59.974Z,3.70
2018-02-27T03:17:28.270Z,4.30
2018-02-27T03:19:55.817Z,3.35
2018-02-27T03:22:24.100Z,3.50
2018-02-27T03:24:51.617Z,4.35
2018-02-27T03:27:19.167Z,4.32
2018-02-27T03:29:46.693Z,3.92
2018-02-27T03:32:14.234Z,4.18
2018-02-27T03:34:42.528Z,4.25
2018-02-27T03:37:10.069Z,4.00
2018-02-27T03:39:38.362Z,5.10
2018-02-27T03:42:05.900Z,5.25
2018-02-27T03:44:34.190Z,4.47
2018-02-27T03:47:02.498Z,3.67
2018-02-27T03:49:30.022Z,3.92
2018-02-27T03:51:58.329Z,3.97
2018-02-27T03:54:25.853Z,4.12
2018-02-27T03:56:54.168Z,4.65
2018-02-27T03:59:21.706Z,4.70
2018-02-27T04:01:49.254Z,5.50
2018-02-27T04:04:17.547Z,6.07
2018-02-27T04:06:45.110Z,4.50
2018-02-27T04:09:12.635Z,4.07
2018-02-27T04:11:40.167Z,5.60
2018-02-27T04:14:07.711Z,3.80
2018-02-27T04:16:35.230Z,4.97
2018-02-27T04:19:03.538Z,4.80
2018-02-27T04:21:31.067Z,5.30
2018-02-27T04:23:59.370Z,4.03
2018-02-27T04:26:26.890Z,5.20
2018-02-27T04:31:28.117Z,3.95
2018-02-27T04:33:55.668Z,4.07
2018-02-27T04:36:23.191Z,5.50
2018-02-27T04:38:51.494Z,4.30
2018-02-27T04:41:19.021Z,4.35
2018-02-27T04:43:47.325Z,4.22
2018-02-27T04:46:14.846Z,4.75
2018-02-27T04:48:42.403Z,4.60
2018-02-27T04:51:10.027Z,5.00
2018-02-27T04:53:37.557Z,6.75
2018-02-27T04:56:05.862Z,5.37
2018-02-27T04:58:33.381Z,4.65
2018-02-27T05:01:00.917Z,5.10
2018-02-27T05:03:28.443Z,4.87
2018-02-27T05:05:55.978Z,4.18
2018-02-27T05:08:23.509Z,5.30
2018-02-27T05:10:51.128Z,4.90
2018-02-27T05:13:18.642Z,5.20
2018-02-27T05:15:46.953Z,5.28
2018-02-27T05:18:14.469Z,4.72
2018-02-27T05:20:42.009Z,4.95
2018-02-27T05:23:09.545Z,6.65
2018-02-27T05:25:37.094Z,6.00
2018-02-27T05:28:04.658Z,5.93
2018-02-27T05:30:32.198Z,6.25
2018-02-27T05:32:59.721Z,5.47
2018-02-27T05:35:27.257Z,4.95
2018-02-27T05:37:54.776Z,4.93
2018-02-27T05:40:22.313Z,5.60
2018-02-27T05:42:49.838Z,5.80
2018-02-27T05:45:17.378Z,5.10
2018-02-27T05:47:44.908Z,5.50
2018-02-27T05:50:13.325Z,5.65
2018-02-27T05:52:40.845Z,5.70
2018-02-27T05:55:09.130Z,6.00
2018-02-27T05:57:37.434Z,6.30
2018-02-27T06:00:04.950Z,6.55
2018-02-27T06:02:33.257Z,6.05
2018-02-27T06:05:00.779Z,4.68
2018-02-27T06:07:28.321Z,5.62
2018-02-27T06:09:55.846Z,7.22
2018-02-27T06:12:23.420Z,6.43
2018-02-27T06:14:50.941Z,6.90
2018-02-27T06:17:19.254Z,7.05
2018-02-27T06:19:46.774Z,5.82
2018-02-27T06:22:15.081Z,6.22
2018-02-27T06:24:42.649Z,7.65
2018-02-27T06:27:10.193Z,5.90
2018-02-27T06:29:37.709Z,6.12
2018-02-27T06:32:05.255Z,7.93
2018-02-27T06:34:32.781Z,5.85
2018-02-27T06:37:00.351Z,7.68
2018-02-27T06:39:27.869Z,9.82
2018-02-27T06:41:56.173Z,10.15
2018-02-27T06:44:23.746Z,8.55
2018-02-27T06:46:51.289Z,10.48
2018-02-27T06:49:18.814Z,8.63
2018-02-27T06:51:46.350Z,9.88
2018-02-27T06:54:13.865Z,8.52
2018-02-27T06:56:41.408Z,8.57
2018-02-27T06:59:09.689Z,11.93
2018-02-27T07:01:37.993Z,8.90
2018-02-27T07:04:05.509Z,8.30
2018-02-27T07:06:33.130Z,9.25
2018-02-27T07:09:00.646Z,8.25
2018-02-27T07:11:28.947Z,10.10
2018-02-27T07:13:56.494Z,8.43
2018-02-27T07:16:24.790Z,11.25
2018-02-27T07:18:52.333Z,11.35
2018-02-27T07:21:20.645Z,11.32
2018-02-27T07:23:48.180Z,9.02
2018-02-27T07:26:16.466Z,10.90
2018-02-27T07:28:44.001Z,10.10
2018-02-27T07:31:12.285Z,10.75
2018-02-27T07:33:40.590Z,11.85
2018-02-27T07:36:08.118Z,12.85
2018-02-27T07:38:36.424Z,12.80
2018-02-27T07:41:03.993Z,12.32
2018-02-27T07:43:31.533Z,12.82
2018-02-27T07:45:59.818Z,10.35
2018-02-27T07:48:27.387Z,10.95
2018-02-27T07:50:54.908Z,11.68
2018-02-27T07:53:22.466Z,12.77
2018-02-27T07:55:49.989Z,10.90
2018-02-27T07:58:17.508Z,12.98
2018-02-27T08:00:45.922Z,11.43
2018-02-27T08:03:13.446Z,11.38
2018-02-27T08:05:41.762Z,11.48
2018-02-27T08:08:09.285Z,10.35
2018-02-27T08:10:37.590Z,10.82
2018-02-27T08:13:05.113Z,12.80
2018-02-27T08:15:33.421Z,11.85
2018-02-27T08:18:00.941Z,13.38
2018-02-27T08:20:28.512Z,10.82
2018-02-27T08:22:56.026Z,11.57
2018-02-27T08:25:23.569Z,11.32
2018-02-27T08:27:51.141Z,14.50
2018-02-27T08:30:18.681Z,13.38
2018-02-27T08:32:46.202Z,10.57
2018-02-27T08:35:13.741Z,11.50
2018-02-27T08:37:41.269Z,11.77
2018-02-27T08:40:08.801Z,12.10
2018-02-27T08:42:37.101Z,13.55
2018-02-27T08:45:04.631Z,13.90
2018-02-27T08:47:32.959Z,12.05
2018-02-27T08:50:00.477Z,12.27
2018-02-27T08:52:28.782Z,11.75
2018-02-27T08:54:56.300Z,12.43
2018-02-27T08:57:23.846Z,11.07
2018-02-27T08:59:51.473Z,14.60
2018-02-27T09:02:19.012Z,13.23
2018-02-27T09:04:46.536Z,13.05
2018-02-27T09:07:14.846Z,13.48
2018-02-27T09:09:43.133Z,11.75
2018-02-27T09:12:10.657Z,11.73
2018-02-27T09:14:38.245Z,13.77
2018-02-27T09:17:05.741Z,12.57
2018-02-27T09:19:33.289Z,12.68
2018-02-27T09:22:00.813Z,13.23
2018-02-27T09:24:29.127Z,12.95
2018-02-27T09:26:56.651Z,13.48
2018-02-27T09:29:24.966Z,11.52
2018-02-27T09:31:52.486Z,13.73
2018-02-27T09:34:20.795Z,12.32
2018-02-27T09:36:48.314Z,13.50
2018-02-27T09:39:16.625Z,12.13
2018-02-27T09:41:44.142Z,11.32
2018-02-27T09:44:11.688Z,12.65
2018-02-27T09:46:39.206Z,11.73
2018-02-27T09:49:06.743Z,12.73
2018-02-27T09:51:35.021Z,13.32
2018-02-27T09:54:02.554Z,12.00
2018-02-27T09:56:30.098Z,13.68
2018-02-27T09:58:57.621Z,11.85
2018-02-27T10:01:25.161Z,13.05
2018-02-27T10:03:53.451Z,10.75
2018-02-27T10:06:20.986Z,10.00
2018-02-27T10:08:48.503Z,10.02
2018-02-27T10:11:16.039Z,10.98
2018-02-27T10:13:43.604Z,10.10
2018-02-27T10:16:11.143Z,9.50
2018-02-27T10:18:38.733Z,11.10
2018-02-27T10:21:06.270Z,10.15
2018-02-27T10:23:33.793Z,9.65
2018-02-27T10:26:01.324Z,9.40
2018-02-27T10:28:28.842Z,9.10
2018-02-27T10:30:56.377Z,7.95
2018-02-27T10:33:23.894Z,8.82
2018-02-27T10:35:51.428Z,8.55
2018-02-27T10:38:18.950Z,8.32
2018-02-27T10:40:46.569Z,8.55
2018-02-27T10:43:14.085Z,7.20
2018-02-27T10:45:42.396Z,7.45
2018-02-27T10:48:09.914Z,7.35
2018-02-27T10:50:38.223Z,8.00
2018-02-27T10:53:05.738Z,7.40
2018-02-27T10:55:33.270Z,7.25
2018-02-27T10:58:00.813Z,8.23
2018-02-27T11:00:33.973Z,7.82
2018-02-27T11:03:02.298Z,7.72
2018-02-27T11:05:29.830Z,7.60
2018-02-27T11:07:57.362Z,6.55
2018-02-27T11:10:25.670Z,6.43
2018-02-27T11:12:53.191Z,6.82
2018-02-27T11:15:20.717Z,6.60
2018-02-27T11:17:48.234Z,6.35
2018-02-27T11:20:16.534Z,7.22
2018-02-27T11:22:44.050Z,7.15
2018-02-27T11:25:11.583Z,6.78
2018-02-27T11:27:39.103Z,7.80
2018-02-27T11:30:06.641Z,6.50
2018-02-27T11:32:34.189Z,6.95
2018-02-27T11:35:01.706Z,6.53
2018-02-27T11:37:29.261Z,6.57
2018-02-27T11:39:56.777Z,6.53
2018-02-27T11:42:25.093Z,7.22
2018-02-27T11:44:52.610Z,7.00
2018-02-27T11:47:20.908Z,8.15
2018-02-27T11:49:48.413Z,5.93
2018-02-27T11:52:15.950Z,6.47
2018-02-27T11:54:43.511Z,6.45
2018-02-27T11:57:11.042Z,5.80
2018-02-27T11:59:39.326Z,7.18
2018-02-27T12:02:07.013Z,7.60
2018-02-27T12:04:34.537Z,8.32
2018-02-27T12:07:02.834Z,6.12
2018-02-27T12:09:30.341Z,5.82
2018-02-27T12:11:57.973Z,6.72
2018-02-27T12:14:25.494Z,6.85
2018-02-27T12:16:53.093Z,5.75
2018-02-27T12:19:20.619Z,6.55
2018-02-27T12:21:48.922Z,6.25
2018-02-27T12:24:16.491Z,6.95
2018-02-27T12:26:44.054Z,6.97
2018-02-27T12:29:11.569Z,6.47
2018-02-27T12:31:39.877Z,6.80
2018-02-27T12:34:07.398Z,6.75
2018-02-27T12:36:34.936Z,7.20
2018-02-27T12:39:02.475Z,6.28
2018-02-27T12:41:30.014Z,6.15
2018-02-27T12:43:57.534Z,6.70
2018-02-27T12:46:25.151Z,6.03
2018-02-27T12:48:52.671Z,7.37
2018-02-27T12:51:20.982Z,6.35
2018-02-27T12:53:48.502Z,6.20
2018-02-27T12:56:16.109Z,6.95
2018-02-27T12:58:43.674Z,7.35
2018-02-27T13:01:11.210Z,5.70
2018-02-27T13:03:39.552Z,6.53
2018-02-27T13:06:07.046Z,7.65
2018-02-27T13:08:34.566Z,7.85
2018-02-27T13:11:02.106Z,7.95
2018-02-27T13:13:29.630Z,6.90
2018-02-27T13:15:57.169Z,6.93
2018-02-27T13:18:26.337Z,6.62
2018-02-27T13:20:53.878Z,7.87
2018-02-27T13:23:21.398Z,6.75
2018-02-27T13:25:49.705Z,7.70
2018-02-27T13:28:17.268Z,6.40
2018-02-27T13:30:44.843Z,7.35
2018-02-27T13:33:12.380Z,7.10
2018-02-27T13:35:39.894Z,6.47
2018-02-27T13:38:07.512Z,7.53
2018-02-27T13:40:35.031Z,7.12
2018-02-27T13:43:03.341Z,6.62
2018-02-27T13:45:30.858Z,6.15
2018-02-27T13:47:58.397Z,7.00
2018-02-27T13:50:25.905Z,6.37
2018-02-27T13:52:53.437Z,8.05
2018-02-27T13:55:20.963Z,6.35
2018-02-27T13:57:48.504Z,6.15
2018-02-27T14:00:16.022Z,6.43
2018-02-27T14:02:43.575Z,6.57
2018-02-27T14:05:11.860Z,5.35
2018-02-27T14:07:39.398Z,5.95
2018-02-27T14:10:06.915Z,6.62
2018-02-27T14:12:34.486Z,6.05
2018-02-27T14:15:02.008Z,6.50
2018-02-27T14:17:30.310Z,6.35
2018-02-27T14:19:57.830Z,5.60
2018-02-27T14:22:25.372Z,6.25
2018-02-27T14:24:52.899Z,5.80
2018-02-27T14:27:20.457Z,5.43
2018-02-27T14:29:47.975Z,5.40
2018-02-27T14:32:16.295Z,6.80
2018-02-27T14:34:43.813Z,4.85
2018-02-27T14:37:11.353Z,6.15
2018-02-27T14:39:38.874Z,6.97
2018-02-27T14:42:06.409Z,6.05
2018-02-27T14:44:34.691Z,6.07
2018-02-27T14:47:02.229Z,6.37
2018-02-27T14:49:29.746Z,7.05
2018-02-27T14:51:57.285Z,6.47
2018-02-27T14:54:24.810Z,6.22
2018-02-27T14:56:52.413Z,5.75
2018-02-27T14:59:19.932Z,8.27
2018-02-27T15:01:47.468Z,6.37
2018-02-27T15:04:15.008Z,6.00
2018-02-27T15:06:42.548Z,6.80
2018-02-27T15:09:10.064Z,5.80
2018-02-27T15:11:38.374Z,7.65
2018-02-27T15:14:06.653Z,5.15
2018-02-27T15:16:34.190Z,6.68
2018-02-27T15:19:01.802Z,4.57
2018-02-27T15:21:29.329Z,4.97
2018-02-27T15:23:56.849Z,4.65
2018-02-27T15:26:24.386Z,4.60
2018-02-27T15:28:51.907Z,5.40
2018-02-27T15:31:20.186Z,5.25
2018-02-27T15:33:48.536Z,5.80
2018-02-27T15:36:16.027Z,6.65
2018-02-27T15:38:43.565Z,6.28
2018-02-27T15:41:11.866Z,5.68
2018-02-27T15:43:39.400Z,5.12
2018-02-27T15:46:06.918Z,4.80
2018-02-27T15:48:34.453Z,4.82
2018-02-27T15:51:01.977Z,5.07
2018-02-27T15:53:29.514Z,4.43
2018-02-27T15:55:57.031Z,5.00
2018-02-27T15:58:25.399Z,5.30
2018-02-27T16:00:53.683Z,4.35
2018-02-27T16:03:21.218Z,6.32
2018-02-27T16:05:49.503Z,5.43
2018-02-27T16:08:17.818Z,5.60
2018-02-27T16:10:45.337Z,5.03
2018-02-27T16:13:13.637Z,6.93
2018-02-27T16:15:41.213Z,6.32
2018-02-27T16:18:08.749Z,5.05
2018-02-27T16:20:36.261Z,4.95
2018-02-27T16:23:03.797Z,4.10
2018-02-27T16:25:31.321Z,5.40
2018-02-27T16:27:59.628Z,4.80
2018-02-27T16:30:27.189Z,5.37
2018-02-27T16:32:54.749Z,5.18
2018-02-27T16:35:22.266Z,4.47
2018-02-27T16:37:50.571Z,4.78
2018-02-27T16:40:18.088Z,4.90
2018-02-27T16:42:45.629Z,5.37
2018-02-27T16:45:13.141Z,4.62
2018-02-27T16:47:40.684Z,6.07
2018-02-27T16:50:08.969Z,4.20
2018-02-27T16:52:37.272Z,4.90
2018-02-27T16:55:04.837Z,5.22
2018-02-27T16:57:32.381Z,5.22
2018-02-27T16:59:59.903Z,4.30
2018-02-27T17:02:27.445Z,4.57
2018-02-27T17:04:54.980Z,4.40
2018-02-27T17:07:22.493Z,4.47
2018-02-27T17:09:50.037Z,4.87
2018-02-27T17:12:17.635Z,3.70
2018-02-27T17:14:45.114Z,4.15
2018-02-27T17:17:12.631Z,3.87
2018-02-27T17:19:40.238Z,4.62
2018-02-27T17:22:07.794Z,5.00
2018-02-27T17:24:35.325Z,4.90
2018-02-27T17:27:03.610Z,4.90
2018-02-27T17:29:31.911Z,4.10
2018-02-27T17:31:59.438Z,5.00
2018-02-27T17:34:27.745Z,4.80
2018-02-27T17:36:55.261Z,4.93
2018-02-27T17:39:23.567Z,4.75
2018-02-27T17:41:51.150Z,4.82
2018-02-27T17:44:18.665Z,5.10
2018-02-27T17:46:47.022Z,6.32
2018-02-27T17:49:14.510Z,4.12
2018-02-27T17:51:42.809Z,5.30
2018-02-27T17:54:10.407Z,4.05
2018-02-27T17:56:38.046Z,5.62
2018-02-27T17:59:05.594Z,4.53
2018-02-27T18:01:33.394Z,4.78
2018-02-27T18:04:00.914Z,5.43
2018-02-27T18:06:28.446Z,5.97
2018-02-27T18:08:55.962Z,4.07
2018-02-27T18:11:25.485Z,4.40
2018-02-27T18:13:53.835Z,3.60
2018-02-27T18:16:21.372Z,5.72
2018-02-27T18:18:48.889Z,4.43
2018-02-27T18:21:16.425Z,5.50
2018-02-27T18:23:43.951Z,5.55
2018-02-27T18:26:14.112Z,4.60
2018-02-27T18:28:44.566Z,5.60
2018-02-27T18:31:14.628Z,5.35
2018-02-27T18:33:42.152Z,4.55
2018-02-27T18:36:09.678Z,4.85
2018-02-27T18:38:37.213Z,5.12
2018-02-27T18:41:04.730Z,4.80
2018-02-27T18:43:32.268Z,4.78
2018-02-27T18:45:59.789Z,4.80
2018-02-27T18:48:27.321Z,4.53
2018-02-27T18:50:54.838Z,5.30
2018-02-27T18:53:22.486Z,5.07
2018-02-27T18:55:50.000Z,5.12
2018-02-27T18:58:17.537Z,5.80
2018-02-27T19:00:45.057Z,5.87
2018-02-27T19:03:12.630Z,6.28
2018-02-27T19:05:40.150Z,5.95
2018-02-27T19:08:08.449Z,8.00
2018-02-27T19:10:35.967Z,6.22
2018-02-27T19:13:03.577Z,5.95
2018-02-27T19:15:31.149Z,6.28
2018-02-27T19:17:58.684Z,6.78
2018-02-27T19:20:26.213Z,6.30
2018-02-27T19:22:53.760Z,5.75
2018-02-27T19:25:21.273Z,7.30
2018-02-27T19:27:48.805Z,7.00
2018-02-27T19:30:17.114Z,6.28
2018-02-27T19:32:44.632Z,7.50
2018-02-27T19:35:12.174Z,7.40
2018-02-27T19:37:39.695Z,6.97
2018-02-27T19:40:07.274Z,6.50
2018-02-27T19:42:34.788Z,7.62
2018-02-27T19:45:02.407Z,6.85
2018-02-27T19:47:29.942Z,6.10
2018-02-27T19:49:57.477Z,5.93
2018-02-27T19:52:26.100Z,7.25
2018-02-27T19:54:53.781Z,6.85
2018-02-27T19:57:21.309Z,6.68
2018-02-27T19:59:48.846Z,6.72
2018-02-27T20:02:17.368Z,6.28
2018-02-27T20:04:45.132Z,5.65
2018-02-27T20:07:12.670Z,7.10
2018-02-27T20:09:40.210Z,7.30
2018-02-27T20:12:08.499Z,6.82
2018-02-27T20:14:36.910Z,6.97
2018-02-27T20:17:04.427Z,7.00
2018-02-27T20:19:31.991Z,6.85
2018-02-27T20:22:00.277Z,6.93
2018-02-27T20:24:28.587Z,6.60
2018-02-27T20:26:56.141Z,6.65
2018-02-27T20:29:23.682Z,6.20
2018-02-27T20:31:51.202Z,7.50
2018-02-27T20:34:18.737Z,6.68
2018-02-27T20:36:46.306Z,6.53
2018-02-27T20:39:19.512Z,6.45
2018-02-27T20:41:47.140Z,6.10
2018-02-27T20:44:14.677Z,5.60
2018-02-27T20:46:42.194Z,6.93
2018-02-27T20:49:09.730Z,6.80
2018-02-27T20:51:37.253Z,6.25
2018-02-27T20:54:05.554Z,7.18
2018-02-27T20:56:33.079Z,6.72
2018-02-27T20:59:01.390Z,6.62
2018-02-27T21:01:28.905Z,5.65
2018-02-27T21:03:56.441Z,6.70
2018-02-27T21:06:23.975Z,6.55
2018-02-27T21:08:51.532Z,7.62
2018-02-27T21:11:19.046Z,6.75
2018-02-27T21:13:47.378Z,6.55
2018-02-27T21:16:14.935Z,7.43
2018-02-27T21:18:42.458Z,6.50
2018-02-27T21:21:10.769Z,7.65
2018-02-27T21:23:38.334Z,7.70
2018-02-27T21:26:05.869Z,7.22
2018-02-27T21:28:33.453Z,7.80
2018-02-27T21:31:00.991Z,7.35
2018-02-27T21:33:28.513Z,7.10
2018-02-27T21:35:56.053Z,7.72
2018-02-27T21:38:23.594Z,8.32
2018-02-27T21:40:51.130Z,7.25
2018-02-27T21:43:18.649Z,6.80
2018-02-27T21:45:46.184Z,8.68
2018-02-27T21:48:13.701Z,7.97
2018-02-27T21:50:42.001Z,7.07
2018-02-27T21:53:09.518Z,7.25
2018-02-27T21:55:37.125Z,8.30
2018-02-27T21:58:05.402Z,6.50
2018-02-27T22:00:32.938Z,6.72
2018-02-27T22:03:01.226Z,6.75
2018-02-27T22:05:28.761Z,7.60
2018-02-27T22:07:57.046Z,6.82
2018-02-27T22:10:25.354Z,7.57
2018-02-27T22:12:52.870Z,7.37
2018-02-27T22:15:20.418Z,9.15
2018-02-27T22:17:47.937Z,7.15
2018-02-27T22:20:15.475Z,7.75
2018-02-27T22:22:43.000Z,10.05
2018-02-27T22:25:10.546Z,9.65
2018-02-27T22:27:38.076Z,7.18
2018-02-27T22:30:05.638Z,7.50
2018-02-27T22:32:33.158Z,9.30
2018-02-27T22:35:01.462Z,8.95
2018-02-27T22:37:28.981Z,8.10
2018-02-27T22:39:56.496Z,9.23
2018-02-27T22:42:24.035Z,8.32
2018-02-27T22:44:51.553Z,8.15
2018-02-27T22:47:19.090Z,8.45
2018-02-27T22:49:46.604Z,9.88
2018-02-27T22:52:14.909Z,7.75
2018-02-27T22:54:42.426Z,7.50
2018-02-27T22:57:10.729Z,8.30
2018-02-27T22:59:38.250Z,7.18
2018-02-27T23:02:05.785Z,8.68
2018-02-27T23:04:33.301Z,8.48
2018-02-27T23:07:01.599Z,7.20
2018-02-27T23:09:29.117Z,7.35
2018-02-27T23:11:56.662Z,8.50
2018-02-27T23:14:24.174Z,8.85
2018-02-27T23:16:51.712Z,8.00
2018-02-27T23:19:19.998Z,7.32
2018-02-27T23:21:47.537Z,7.90
2018-02-27T23:24:16.107Z,8.68
2018-02-27T23:26:44.747Z,8.20
2018-02-27T23:29:15.213Z,8.23
2018-02-27T23:31:44.221Z,8.13
2018-02-27T23:34:16.037Z,9.60
2018-02-27T23:36:43.592Z,8.55
2018-02-27T23:39:11.129Z,8.23
2018-02-27T23:41:39.414Z,8.05
2018-02-27T23:44:06.953Z,7.60
2018-02-27T23:46:35.269Z,9.30
2018-02-27T23:49:02.836Z,9.48
2018-02-27T23:51:30.357Z,9.70
2018-02-27T23:53:58.666Z,8.30
2018-02-27T23:56:26.281Z,8.18
2018-02-27T23:58:53.784Z,9.77
